Lapis Arrow — C6VH5 — position and weather

sailwx.info

Track history (hours):
 
Tides and Currents Weather Stations Pressure Air Temp Water Temp Dewpoint Dewpoint Depression Visibility Wind Speed Wind Dir Waves Ship Positions

Lapis Arrow

Last reported at 2015-May-15 09:04 UTC. Time now 2015-May-25 17:39 UTC.
Position N 34°53' E 139°36'.
Warning: this ship's position is 10 days out of date.

Length 176 m; draft 7.3 m.

Type: Cargo ship. MMSI: 308800800.

Date/timePositionNaut miles runAvg speedWind from/ knotsBaromVisibWave heightAir tempDewpointWater temp
2015-May-15 09:04N 34°53' E 139°36'713.2
2015-May-15 08:33N 34°59' E 139°40'1313.3
2015-May-15 07:33N 35°11' E 139°45'1010.3
2015-May-15 06:33N 35°21' E 139°42'6 5.6
2015-May-15 05:29N 35°27' E 139°41'0 0.0
2015-May-15 04:11N 35°27' E 139°41'0 0.0
2015-May-15 02:20N 35°27' E 139°41'0 0.0
2015-May-15 00:22N 35°27' E 139°41'0 0.0
2015-May-14 22:27N 35°27' E 139°41'4 3.9
2015-May-14 21:30N 35°27' E 139°45'0 0.1
2015-May-14 20:20N 35°27' E 139°45'0 0.0
2015-May-14 19:32N 35°27' E 139°45'0 0.0
2015-May-14 18:27N 35°27' E 139°45'0 0.0
2015-May-14 17:30N 35°27' E 139°45'0 0.0
2015-May-14 16:21N 35°27' E 139°45'0 0.0
2015-May-14 15:32N 35°27' E 139°45'0 0.0
2015-May-14 14:19N 35°27' E 139°45'0 0.0
2015-May-14 13:06N 35°27' E 139°45'0 0.1
2015-May-14 12:18N 35°27' E 139°46'0 0.2
2015-May-14 11:34N 35°27' E 139°45'10 9.6
2015-May-14 10:33N 35°17' E 139°45'9 9.4
2015-May-14 09:33N 35°08' E 139°46'5 5.2
2015-May-14 08:34N 35°03' E 139°44'3 3.3
2015-May-14 07:33N 34°60' E 139°43'1612.7
2015-May-14 06:17N 34°47' E 139°56'1315.7
2015-May-14 05:26N 34°44' E 140°11'  
Track history (hours):
 
Tides and Currents Weather Stations Pressure Air Temp Water Temp Dewpoint Dewpoint Depression Visibility Wind Speed Wind Dir Waves Ship Positions

Lapis Arrow

Last reported at 2015-May-15 09:04 UTC. Time now 2015-May-25 17:39 UTC.
Position N 34°53' E 139°36'.
Warning: this ship's position is 10 days out of date.

Length 176 m; draft 7.3 m.

Type: Cargo ship. MMSI: 308800800.

Date/timePositionNaut miles runAvg speedWind from/ knotsBaromVisibWave heightAir tempDewpointWater temp
2015-May-15 09:04N 34°53' E 139°36'713.2
2015-May-15 08:33N 34°59' E 139°40'1313.3
2015-May-15 07:33N 35°11' E 139°45'1010.3
2015-May-15 06:33N 35°21' E 139°42'6 5.6
2015-May-15 05:29N 35°27' E 139°41'0 0.0
2015-May-15 04:11N 35°27' E 139°41'0 0.0
2015-May-15 02:20N 35°27' E 139°41'0 0.0
2015-May-15 00:22N 35°27' E 139°41'0 0.0
2015-May-14 22:27N 35°27' E 139°41'4 3.9
2015-May-14 21:30N 35°27' E 139°45'0 0.1
2015-May-14 20:20N 35°27' E 139°45'0 0.0
2015-May-14 19:32N 35°27' E 139°45'0 0.0
2015-May-14 18:27N 35°27' E 139°45'0 0.0
2015-May-14 17:30N 35°27' E 139°45'0 0.0
2015-May-14 16:21N 35°27' E 139°45'0 0.0
2015-May-14 15:32N 35°27' E 139°45'0 0.0
2015-May-14 14:19N 35°27' E 139°45'0 0.0
2015-May-14 13:06N 35°27' E 139°45'0 0.1
2015-May-14 12:18N 35°27' E 139°46'0 0.2
2015-May-14 11:34N 35°27' E 139°45'10 9.6
2015-May-14 10:33N 35°17' E 139°45'9 9.4
2015-May-14 09:33N 35°08' E 139°46'5 5.2
2015-May-14 08:34N 35°03' E 139°44'3 3.3
2015-May-14 07:33N 34°60' E 139°43'1612.7
2015-May-14 06:17N 34°47' E 139°56'1315.7
2015-May-14 05:26N 34°44' E 140°11'  

Dump ship's entire track history